Time;durP1;ratioP1;P1;durP2;ratioP2;P2;SDS_P1;SDS_P2;PMS_P1;PMS_P2;Temp;Humidity;BMP_temperature;BMP_pressure;BME280_temperature;BME280_humidity;BME280_pressure;Samples;Min_cycle;Max_cycle;Signal;HPM_P1;HPM_P2
2021/01/12 00:00:25;;;;;;;19.93;16.20;;;6.10;96.80;;;;;;5073891;28;20458;-72
2021/01/12 00:02:51;;;;;;;21.20;15.57;;;6.10;96.80;;;;;;5073573;28;20430;-72
2021/01/12 00:05:19;;;;;;;21.00;16.30;;;6.10;96.80;;;;;;5073886;28;20482;-72
2021/01/12 00:07:46;;;;;;;22.63;14.80;;;6.10;96.80;;;;;;5073719;28;20531;-71
2021/01/12 00:10:12;;;;;;;18.17;14.87;;;6.20;96.90;;;;;;5073204;28;20950;-71
2021/01/12 00:12:40;;;;;;;21.33;15.10;;;6.20;96.90;;;;;;5073012;28;20452;-71
2021/01/12 00:15:07;;;;;;;21.50;15.83;;;6.10;96.90;;;;;;5073632;28;20432;-71
2021/01/12 00:17:34;;;;;;;21.07;15.50;;;6.20;97.00;;;;;;5073496;28;20965;-71
2021/01/12 00:20:00;;;;;;;19.73;15.60;;;6.20;97.20;;;;;;5073536;28;20448;-71
2021/01/12 00:22:27;;;;;;;22.90;15.80;;;6.20;97.10;;;;;;5073549;28;20518;-71
2021/01/12 00:24:53;;;;;;;20.27;15.63;;;6.20;97.40;;;;;;5073500;28;20440;-71
2021/01/12 00:27:21;;;;;;;20.40;15.47;;;6.20;97.50;;;;;;5073138;28;20461;-71
2021/01/12 00:29:48;;;;;;;23.07;17.80;;;6.20;97.60;;;;;;5073525;28;20810;-71
2021/01/12 00:32:15;;;;;;;21.80;16.23;;;6.20;97.60;;;;;;5073364;28;20441;-71
2021/01/12 00:34:42;;;;;;;22.33;15.83;;;6.10;97.70;;;;;;5073404;28;20429;-71
2021/01/12 00:37:08;;;;;;;20.97;16.07;;;6.10;97.70;;;;;;5073125;28;20481;-71
2021/01/12 00:39:34;;;;;;;24.20;16.90;;;6.20;97.90;;;;;;5073460;28;20437;-71
2021/01/12 00:42:00;;;;;;;24.43;16.70;;;6.10;97.90;;;;;;5073308;28;20440;-71
2021/01/12 00:44:27;;;;;;;19.10;15.87;;;6.10;98.00;;;;;;5073381;28;20452;-71
2021/01/12 00:46:55;;;;;;;25.00;17.53;;;6.10;98.00;;;;;;5073413;28;20456;-71
2021/01/12 00:49:23;;;;;;;23.33;17.13;;;6.10;98.00;;;;;;5073200;28;20445;-71
2021/01/12 00:51:49;;;;;;;19.60;17.00;;;6.10;98.20;;;;;;5073226;28;20484;-71
2021/01/12 00:54:17;;;;;;;23.57;17.67;;;6.10;98.20;;;;;;5073344;28;20457;-71
2021/01/12 00:56:43;;;;;;;22.43;15.90;;;6.00;98.20;;;;;;5073076;28;20491;-71
2021/01/12 00:59:10;;;;;;;20.20;16.27;;;6.00;98.20;;;;;;5073205;28;20440;-71
2021/01/12 01:01:37;;;;;;;20.67;15.87;;;6.00;98.30;;;;;;5073114;28;20497;-72
2021/01/12 01:04:05;;;;;;;19.67;15.90;;;6.00;98.40;;;;;;5073152;28;20456;-72
2021/01/12 01:06:31;;;;;;;22.60;16.67;;;6.00;98.40;;;;;;5073031;28;20468;-71
2021/01/12 01:08:58;;;;;;;19.27;15.30;;;6.00;98.30;;;;;;5073068;28;20847;-71
2021/01/12 01:11:24;;;;;;;19.60;15.43;;;6.10;98.30;;;;;;5072549;28;20457;-71
2021/01/12 01:13:50;;;;;;;19.37;14.80;;;6.00;98.20;;;;;;5072712;28;20452;-71
2021/01/12 01:16:16;;;;;;;21.07;15.77;;;6.00;98.30;;;;;;5072839;28;20483;-71
2021/01/12 01:18:42;;;;;;;18.10;15.10;;;6.00;98.30;;;;;;5072964;28;20498;-71
2021/01/12 01:21:12;;;;;;;23.13;14.73;;;6.00;98.20;;;;;;5072979;28;20448;-71
2021/01/12 01:23:39;;;;;;;18.50;15.70;;;6.00;98.40;;;;;;5075237;28;20449;-71
2021/01/12 01:26:05;;;;;;;16.60;14.33;;;6.00;98.50;;;;;;5076461;28;20464;-71
2021/01/12 01:28:31;;;;;;;16.40;13.87;;;6.00;98.60;;;;;;5076567;28;20449;-71
2021/01/12 01:30:58;;;;;;;19.13;15.10;;;6.00;98.60;;;;;;5076534;28;20452;-71
2021/01/12 01:33:24;;;;;;;16.40;14.00;;;6.00;98.50;;;;;;5076573;28;20444;-71
2021/01/12 01:35:50;;;;;;;19.23;14.30;;;6.00;98.60;;;;;;5076333;28;20484;-71
2021/01/12 01:38:17;;;;;;;15.83;14.13;;;6.00;98.50;;;;;;5076168;28;20954;-71
2021/01/12 01:40:44;;;;;;;17.20;12.83;;;6.00;98.50;;;;;;5076260;28;20444;-71
2021/01/12 01:43:15;;;;;;;15.87;12.90;;;6.00;98.60;;;;;;5076246;28;20456;-71
2021/01/12 01:45:42;;;;;;;16.67;13.17;;;6.00;98.70;;;;;;5076227;28;20911;-71
2021/01/12 01:48:09;;;;;;;16.83;13.83;;;6.00;98.70;;;;;;5076220;28;20510;-71
2021/01/12 01:50:36;;;;;;;17.30;12.17;;;6.00;98.60;;;;;;5076167;28;20813;-71
2021/01/12 01:53:02;;;;;;;14.53;11.90;;;6.00;98.60;;;;;;5076062;28;20452;-71
2021/01/12 01:55:30;;;;;;;13.70;11.17;;;6.00;98.50;;;;;;5076169;28;20464;-71
2021/01/12 01:57:56;;;;;;;14.73;11.60;;;6.00;98.60;;;;;;5076030;28;20453;-71
2021/01/12 02:00:23;;;;;;;12.97;11.57;;;6.00;98.50;;;;;;5075977;28;20527;-71
2021/01/12 02:02:55;;;;;;;13.13;11.77;;;6.00;98.50;;;;;;5075640;28;20946;-71
2021/01/12 02:05:26;;;;;;;14.30;10.97;;;6.00;98.40;;;;;;5075910;28;20433;-71
2021/01/12 02:07:55;;;;;;;11.77;10.13;;;6.00;98.50;;;;;;5075552;28;20963;-71
2021/01/12 02:10:24;;;;;;;11.40;10.10;;;6.00;98.60;;;;;;5075689;28;20468;-71
2021/01/12 02:12:58;;;;;;;12.30;10.37;;;6.00;98.50;;;;;;5075711;28;20447;-71
2021/01/12 02:15:25;;;;;;;11.80;10.57;;;6.00;98.60;;;;;;5075522;28;20465;-71
2021/01/12 02:17:52;;;;;;;11.70;9.90;;;6.00;98.60;;;;;;5075620;28;20444;-71
2021/01/12 02:20:21;;;;;;;11.60;10.40;;;6.00;98.70;;;;;;5075589;28;21007;-71
2021/01/12 02:23:02;;;;;;;18.13;10.07;;;6.10;98.80;;;;;;5075298;28;20930;-71
2021/01/12 02:25:31;;;;;;;9.50;8.50;;;6.10;98.80;;;;;;5075468;28;20469;-71
2021/01/12 02:27:57;;;;;;;10.13;8.50;;;6.20;98.70;;;;;;5075168;28;20899;-71
2021/01/12 02:30:24;;;;;;;11.03;9.30;;;6.10;98.80;;;;;;5075425;28;20490;-71
2021/01/12 02:32:50;;;;;;;11.27;8.80;;;6.10;99.00;;;;;;5075618;28;20470;-71
2021/01/12 02:35:20;;;;;;;11.20;8.40;;;6.10;99.00;;;;;;5074665;28;20444;-71
2021/01/12 02:37:47;;;;;;;11.13;8.87;;;6.10;98.90;;;;;;5075182;28;20484;-71
2021/01/12 02:40:14;;;;;;;10.27;9.10;;;6.10;98.90;;;;;;5075222;28;20478;-71
2021/01/12 02:42:43;;;;;;;9.17;7.90;;;6.20;99.00;;;;;;5075312;28;20460;-71
2021/01/12 02:45:10;;;;;;;8.47;7.67;;;6.20;99.00;;;;;;5074992;28;20495;-72
2021/01/12 02:47:36;;;;;;;8.10;7.30;;;6.20;98.90;;;;;;5074721;28;20440;-71
2021/01/12 02:50:03;;;;;;;9.60;7.40;;;6.20;98.90;;;;;;5074976;28;20809;-71
2021/01/12 02:52:29;;;;;;;8.10;6.77;;;6.20;98.90;;;;;;5075006;28;20472;-71
2021/01/12 02:54:55;;;;;;;8.07;7.27;;;6.20;99.00;;;;;;5074864;28;20471;-71
2021/01/12 02:57:22;;;;;;;7.40;6.50;;;6.30;99.00;;;;;;5074976;28;20542;-71
2021/01/12 02:59:49;;;;;;;8.43;7.47;;;6.30;99.10;;;;;;5074794;28;20444;-71
2021/01/12 03:02:15;;;;;;;6.73;6.00;;;6.30;99.20;;;;;;5074827;28;20456;-71
2021/01/12 03:04:41;;;;;;;7.90;7.10;;;6.30;99.20;;;;;;5074493;28;20914;-71
2021/01/12 03:07:07;;;;;;;8.93;8.00;;;6.30;99.20;;;;;;5074617;28;20464;-71
2021/01/12 03:09:34;;;;;;;7.10;6.40;;;6.40;99.20;;;;;;5074322;28;20796;-71
2021/01/12 03:12:00;;;;;;;8.00;7.00;;;6.40;99.20;;;;;;5074533;28;20460;-71
2021/01/12 03:14:26;;;;;;;7.43;6.50;;;6.40;99.10;;;;;;5074550;28;20453;-71
2021/01/12 03:16:53;;;;;;;7.57;6.80;;;6.40;99.20;;;;;;5074847;28;20483;-72
2021/01/12 03:19:19;;;;;;;9.40;7.30;;;6.40;99.40;;;;;;5074838;28;20445;-72
2021/01/12 03:21:47;;;;;;;7.07;6.30;;;6.50;99.30;;;;;;5074980;28;20502;-71
2021/01/12 03:24:13;;;;;;;6.80;6.03;;;6.50;99.40;;;;;;5074445;28;20453;-72
2021/01/12 03:26:39;;;;;;;6.90;6.27;;;6.50;99.50;;;;;;5074807;28;20494;-72
2021/01/12 03:29:05;;;;;;;6.53;5.93;;;6.50;99.50;;;;;;5074938;28;20449;-71
2021/01/12 03:31:32;;;;;;;6.60;6.00;;;6.50;99.60;;;;;;5074856;28;20451;-71
2021/01/12 03:33:59;;;;;;;6.53;5.80;;;6.60;99.60;;;;;;5074428;28;20425;-71
2021/01/12 03:36:25;;;;;;;5.67;5.17;;;6.60;99.60;;;;;;5074109;28;20824;-71
2021/01/12 03:38:51;;;;;;;6.00;5.40;;;6.60;99.70;;;;;;5074399;28;20453;-72
2021/01/12 03:41:17;;;;;;;9.43;6.87;;;6.70;99.70;;;;;;5074421;28;20460;-72
2021/01/12 03:43:43;;;;;;;5.63;5.03;;;6.70;99.60;;;;;;5074192;28;20495;-71
2021/01/12 03:46:10;;;;;;;5.93;5.33;;;6.70;99.70;;;;;;5073195;28;20465;-72
2021/01/12 03:48:36;;;;;;;6.30;4.73;;;6.70;99.60;;;;;;5074019;28;20448;-72
2021/01/12 03:51:03;;;;;;;5.37;4.87;;;6.80;99.70;;;;;;5073944;28;20445;-72
2021/01/12 03:53:30;;;;;;;4.40;3.97;;;6.80;99.80;;;;;;5073892;28;20514;-72
2021/01/12 03:55:56;;;;;;;4.27;3.87;;;6.80;99.70;;;;;;5073742;28;20534;-72
2021/01/12 03:58:22;;;;;;;5.40;4.90;;;6.80;99.80;;;;;;5073899;28;20444;-71
2021/01/12 04:00:48;;;;;;;5.43;4.70;;;6.80;99.90;;;;;;5074687;28;20433;-71
2021/01/12 04:03:15;;;;;;;5.60;5.00;;;6.80;99.90;;;;;;5073775;28;20449;-71
2021/01/12 04:05:41;;;;;;;5.33;4.63;;;6.80;99.90;;;;;;5073890;28;20464;-72
2021/01/12 04:08:10;;;;;;;5.10;4.20;;;6.90;99.90;;;;;;5073544;28;20961;-72
2021/01/12 04:10:37;;;;;;;4.00;3.53;;;6.90;99.90;;;;;;5073567;28;20460;-72
2021/01/12 04:13:04;;;;;;;4.23;3.80;;;6.90;99.90;;;;;;5073615;28;20448;-72
2021/01/12 04:15:30;;;;;;;6.60;3.90;;;6.90;99.90;;;;;;5073530;28;20460;-72
2021/01/12 04:17:56;;;;;;;4.80;3.80;;;6.90;99.90;;;;;;5073494;28;20503;-72
2021/01/12 04:20:23;;;;;;;4.57;3.97;;;7.00;99.90;;;;;;5073587;28;20447;-72
2021/01/12 04:22:49;;;;;;;4.57;4.17;;;7.00;99.90;;;;;;5073469;28;20503;-72
2021/01/12 04:25:16;;;;;;;4.13;3.80;;;7.00;99.90;;;;;;5073435;28;20449;-72
2021/01/12 04:27:42;;;;;;;4.90;4.03;;;7.00;99.90;;;;;;5073545;28;20976;-72
2021/01/12 04:30:09;;;;;;;4.67;3.80;;;7.10;99.90;;;;;;5073450;28;20448;-72
2021/01/12 04:32:36;;;;;;;4.50;4.10;;;7.10;99.90;;;;;;5073445;28;20447;-72
2021/01/12 04:35:02;;;;;;;4.17;3.77;;;7.10;99.90;;;;;;5073109;28;20793;-72
2021/01/12 04:37:28;;;;;;;5.70;4.50;;;7.10;99.90;;;;;;5073173;28;20484;-72
2021/01/12 04:39:54;;;;;;;4.53;4.13;;;7.20;99.90;;;;;;5073384;28;20433;-72
2021/01/12 04:42:21;;;;;;;8.37;4.40;;;7.10;99.90;;;;;;5072971;28;20903;-74
2021/01/12 04:44:48;;;;;;;5.00;4.27;;;7.20;99.90;;;;;;5073305;28;20449;-72
2021/01/12 04:47:14;;;;;;;5.30;4.23;;;7.10;99.90;;;;;;5073191;28;20472;-72
2021/01/12 04:49:40;;;;;;;6.60;4.47;;;7.10;99.90;;;;;;5072923;28;20955;-72
2021/01/12 04:52:06;;;;;;;5.33;4.50;;;7.20;99.90;;;;;;5073133;28;20436;-72
2021/01/12 04:54:33;;;;;;;4.20;3.80;;;7.10;99.90;;;;;;5073314;28;20425;-71
2021/01/12 04:56:59;;;;;;;4.63;3.80;;;7.10;99.90;;;;;;5073053;28;20491;-71
2021/01/12 04:59:29;;;;;;;4.80;4.27;;;7.10;99.90;;;;;;5076693;28;20962;-72
2021/01/12 05:01:56;;;;;;;3.40;3.10;;;7.20;99.90;;;;;;5077247;28;20431;-72
2021/01/12 05:04:23;;;;;;;3.87;3.50;;;7.20;99.90;;;;;;5077129;28;20436;-72
2021/01/12 05:06:49;;;;;;;4.07;3.67;;;7.20;99.90;;;;;;5077451;28;20968;-72
2021/01/12 05:09:26;;;;;;;4.10;3.70;;;7.20;99.90;;;;;;5076593;28;20471;-72
2021/01/12 05:11:55;;;;;;;5.70;3.60;;;7.20;99.90;;;;;;5076499;28;20468;-72
2021/01/12 05:14:25;;;;;;;3.80;3.50;;;7.20;99.90;;;;;;5076765;28;20447;-72
2021/01/12 05:16:53;;;;;;;3.83;3.53;;;7.20;99.90;;;;;;5076645;28;20836;-72
2021/01/12 05:19:21;;;;;;;3.00;2.80;;;7.20;99.90;;;;;;5076471;28;20435;-72
2021/01/12 05:21:49;;;;;;;3.80;3.40;;;7.20;99.90;;;;;;5076672;28;20441;-72
2021/01/12 05:24:19;;;;;;;3.60;3.30;;;7.20;99.90;;;;;;5077293;28;20464;-71
2021/01/12 05:26:47;;;;;;;3.10;2.87;;;7.20;99.90;;;;;;5076528;28;20456;-72
2021/01/12 05:29:13;;;;;;;3.67;3.23;;;7.30;99.90;;;;;;5076247;28;20942;-72
2021/01/12 05:31:42;;;;;;;2.70;2.50;;;7.30;99.90;;;;;;5076581;28;20444;-72
2021/01/12 05:34:11;;;;;;;2.40;2.20;;;7.30;99.90;;;;;;5076518;28;20435;-72
2021/01/12 05:36:47;;;;;;;2.73;2.53;;;7.30;99.90;;;;;;5076278;28;20488;-72
2021/01/12 05:39:17;;;;;;;2.50;2.30;;;7.40;99.90;;;;;;5076390;28;20439;-72
2021/01/12 05:41:44;;;;;;;3.00;2.20;;;7.40;99.90;;;;;;5076356;28;20444;-72
2021/01/12 05:44:14;;;;;;;2.60;2.40;;;7.40;99.90;;;;;;5076383;28;20440;-72
2021/01/12 05:46:44;;;;;;;3.97;1.93;;;7.40;99.90;;;;;;5076473;28;20484;-72
2021/01/12 05:49:11;;;;;;;2.40;2.20;;;7.40;99.90;;;;;;5076269;28;20455;-72
2021/01/12 05:51:44;;;;;;;3.20;2.47;;;7.40;99.90;;;;;;5075981;28;20902;-72
2021/01/12 05:54:21;;;;;;;2.30;2.10;;;7.50;99.90;;;;;;5076370;28;20847;-72
2021/01/12 05:56:49;;;;;;;1.70;1.60;;;7.50;99.90;;;;;;5076024;28;20484;-72
2021/01/12 05:59:23;;;;;;;2.03;1.77;;;7.50;99.90;;;;;;5075869;28;20942;-72
2021/01/12 06:01:52;;;;;;;1.80;1.70;;;7.50;99.90;;;;;;5076088;28;20429;-72
2021/01/12 06:04:19;;;;;;;2.20;1.60;;;7.50;99.90;;;;;;5075932;28;20448;-73
2021/01/12 06:06:47;;;;;;;1.43;1.33;;;7.60;99.90;;;;;;5075907;28;20463;-72
2021/01/12 06:09:15;;;;;;;2.10;1.77;;;7.60;99.90;;;;;;5074930;28;20524;-72
2021/01/12 06:11:43;;;;;;;4.13;1.80;;;7.60;99.90;;;;;;5075441;28;20460;-72
2021/01/12 06:14:11;;;;;;;2.23;1.53;;;7.60;99.90;;;;;;5075667;28;20539;-72
2021/01/12 06:16:39;;;;;;;1.97;1.77;;;7.60;99.90;;;;;;5075534;28;20485;-72
2021/01/12 06:19:11;;;;;;;1.63;1.53;;;7.60;99.90;;;;;;5075329;28;20925;-73
2021/01/12 06:22:09;;;;;;;1.60;1.50;;;7.70;99.90;;;;;;5075684;28;20429;-72
2021/01/12 06:24:44;;;;;;;1.57;1.20;;;7.70;99.90;;;;;;5075570;28;20429;-72
2021/01/12 06:27:13;;;;;;;2.20;1.53;;;7.70;99.90;;;;;;5075483;28;20460;-72
2021/01/12 06:29:40;;;;;;;1.50;1.40;;;7.70;99.90;;;;;;5075167;28;20939;-73
2021/01/12 06:32:06;;;;;;;1.43;1.33;;;7.70;99.90;;;;;;5075387;28;20449;-72
2021/01/12 06:34:33;;;;;;;3.00;1.33;;;7.70;99.90;;;;;;5075514;28;20433;-72
2021/01/12 06:37:04;;;;;;;1.17;1.10;;;7.70;99.90;;;;;;5074903;28;20984;-73
2021/01/12 06:39:40;;;;;;;2.03;1.43;;;7.70;99.90;;;;;;5075457;28;20431;-72
2021/01/12 06:42:07;;;;;;;1.70;1.30;;;7.70;99.90;;;;;;5075175;28;20437;-73
2021/01/12 06:44:36;;;;;;;1.40;1.30;;;7.80;99.90;;;;;;5075315;28;20873;-72
2021/01/12 06:47:04;;;;;;;1.97;1.20;;;7.80;99.90;;;;;;5074944;28;20468;-73
2021/01/12 06:49:31;;;;;;;1.37;1.27;;;7.70;99.90;;;;;;5075411;28;20914;-73
2021/01/12 06:52:01;;;;;;;1.10;1.10;;;7.80;99.90;;;;;;5075027;28;20517;-72
2021/01/12 06:54:34;;;;;;;1.37;1.27;;;7.80;99.90;;;;;;5075036;28;20437;-73
2021/01/12 06:57:02;;;;;;;0.77;0.77;;;7.80;99.90;;;;;;5074506;28;21002;-73
2021/01/12 06:59:44;;;;;;;1.10;0.93;;;7.90;99.90;;;;;;5074607;28;20444;-72
2021/01/12 07:02:18;;;;;;;1.03;0.93;;;7.90;99.90;;;;;;5074915;28;20479;-72
2021/01/12 07:04:55;;;;;;;1.23;1.13;;;7.90;99.90;;;;;;5074794;28;20425;-72
2021/01/12 07:07:23;;;;;;;1.73;1.03;;;7.80;99.90;;;;;;5074703;28;20476;-72
2021/01/12 07:09:53;;;;;;;2.13;0.87;;;7.90;99.90;;;;;;5074573;28;20452;-73
2021/01/12 07:12:21;;;;;;;1.10;0.93;;;7.90;99.90;;;;;;5074712;28;20441;-73
2021/01/12 07:14:50;;;;;;;0.80;0.67;;;7.90;99.90;;;;;;5074430;28;20447;-73
2021/01/12 07:17:24;;;;;;;1.10;1.07;;;7.90;99.90;;;;;;5074398;28;20488;-73
2021/01/12 07:19:50;;;;;;;1.33;1.17;;;7.90;99.90;;;;;;5074481;28;20456;-73
2021/01/12 07:22:19;;;;;;;3.07;1.17;;;7.90;99.90;;;;;;5074258;28;20513;-73
2021/01/12 07:24:46;;;;;;;2.30;1.30;;;7.90;99.90;;;;;;5074345;28;20440;-73
2021/01/12 07:27:15;;;;;;;2.00;1.07;;;7.90;99.90;;;;;;5074165;28;20514;-73
2021/01/12 07:29:49;;;;;;;1.70;1.17;;;7.90;99.90;;;;;;5074323;28;20452;-73
2021/01/12 07:32:30;;;;;;;2.70;1.13;;;7.90;99.90;;;;;;5074286;28;20437;-73
2021/01/12 07:34:59;;;;;;;1.80;1.20;;;7.90;99.90;;;;;;5074183;28;20444;-73
2021/01/12 07:37:30;;;;;;;4.33;1.07;;;7.90;99.90;;;;;;5074069;28;20480;-73
2021/01/12 07:39:57;;;;;;;1.17;1.10;;;7.90;99.90;;;;;;5074140;28;20441;-73
2021/01/12 07:42:23;;;;;;;1.50;1.40;;;7.90;99.90;;;;;;5073762;28;20444;-73
2021/01/12 07:44:50;;;;;;;1.30;1.20;;;7.90;99.90;;;;;;5073975;28;20456;-73
2021/01/12 07:47:16;;;;;;;1.37;1.27;;;8.00;99.90;;;;;;5073973;28;20464;-72
2021/01/12 07:49:44;;;;;;;2.07;1.53;;;8.00;99.90;;;;;;5073927;28;20455;-72
2021/01/12 07:52:11;;;;;;;1.10;1.10;;;8.00;99.90;;;;;;5073981;28;20452;-73
2021/01/12 07:54:37;;;;;;;2.37;2.13;;;8.00;99.90;;;;;;5073863;28;20448;-73
2021/01/12 07:57:05;;;;;;;2.03;1.87;;;8.00;99.90;;;;;;5073825;28;20815;-73
2021/01/12 07:59:32;;;;;;;2.37;2.10;;;8.00;99.90;;;;;;5073839;28;20444;-73
2021/01/12 08:02:01;;;;;;;2.17;1.97;;;8.00;99.90;;;;;;5073738;28;20449;-73
2021/01/12 08:04:27;;;;;;;3.40;2.03;;;8.00;99.90;;;;;;5073977;28;20444;-73
2021/01/12 08:06:53;;;;;;;1.73;1.63;;;8.00;99.90;;;;;;5073400;28;20997;-73
2021/01/12 08:09:23;;;;;;;2.50;2.30;;;8.00;99.90;;;;;;5073802;28;20455;-73
2021/01/12 08:11:52;;;;;;;1.77;1.33;;;8.10;99.90;;;;;;5073663;28;20946;-73
2021/01/12 08:14:23;;;;;;;3.43;1.90;;;8.10;99.90;;;;;;5073654;28;20441;-73
2021/01/12 08:16:51;;;;;;;3.17;1.77;;;8.10;99.90;;;;;;5073561;28;20491;-73
2021/01/12 08:19:22;;;;;;;3.87;1.70;;;8.10;99.90;;;;;;5073554;28;20479;-73
2021/01/12 08:21:49;;;;;;;1.50;1.40;;;8.10;99.90;;;;;;5073690;28;20486;-73
2021/01/12 08:24:26;;;;;;;3.10;1.53;;;8.20;99.90;;;;;;5073588;28;20448;-73
2021/01/12 08:26:53;;;;;;;1.63;1.53;;;8.20;99.90;;;;;;5073458;28;20842;-73
2021/01/12 08:29:27;;;;;;;2.57;2.37;;;8.20;99.90;;;;;;5073529;28;20448;-73
2021/01/12 08:32:01;;;;;;;2.43;2.23;;;8.20;99.90;;;;;;5073194;28;20441;-73
2021/01/12 08:34:30;;;;;;;2.73;2.17;;;8.20;99.90;;;;;;5073430;28;20782;-73
2021/01/12 08:37:02;;;;;;;2.63;2.43;;;8.20;99.90;;;;;;5073038;28;21013;-73
2021/01/12 08:39:32;;;;;;;3.03;2.80;;;8.20;99.90;;;;;;5073387;28;20429;-73
2021/01/12 08:41:59;;;;;;;2.70;2.50;;;8.20;99.90;;;;;;5073386;28;20433;-73
2021/01/12 08:44:27;;;;;;;2.67;2.47;;;8.20;99.90;;;;;;5073407;28;20445;-73
2021/01/12 08:46:53;;;;;;;3.03;2.70;;;8.20;99.90;;;;;;5073396;28;20475;-73
2021/01/12 08:49:29;;;;;;;2.70;2.50;;;8.30;99.90;;;;;;5073279;28;20460;-73
2021/01/12 08:51:56;;;;;;;3.60;3.30;;;8.30;99.90;;;;;;5073232;28;20425;-74
2021/01/12 08:54:23;;;;;;;3.60;3.33;;;8.40;99.90;;;;;;5072969;28;20947;-74
2021/01/12 08:56:55;;;;;;;3.87;3.57;;;8.40;99.90;;;;;;5073158;28;20484;-74
2021/01/12 08:59:28;;;;;;;3.40;3.10;;;8.40;99.90;;;;;;5073296;28;20794;-74
2021/01/12 09:01:56;;;;;;;4.20;3.80;;;8.40;99.90;;;;;;5073278;28;20885;-73
2021/01/12 09:04:23;;;;;;;4.13;3.80;;;8.40;99.90;;;;;;5073114;28;20502;-74
2021/01/12 09:07:01;;;;;;;4.90;3.83;;;8.40;99.90;;;;;;5073123;28;20464;-74
2021/01/12 09:09:27;;;;;;;3.20;2.90;;;8.40;99.90;;;;;;5073101;28;20444;-74
2021/01/12 09:11:58;;;;;;;5.73;5.13;;;8.40;99.90;;;;;;5072690;28;20462;-73
2021/01/12 09:14:24;;;;;;;3.10;2.77;;;8.40;99.90;;;;;;5073080;28;20794;-74
2021/01/12 09:16:58;;;;;;;2.90;2.70;;;8.40;99.90;;;;;;5072922;28;20484;-74
2021/01/12 09:19:24;;;;;;;3.30;3.10;;;8.40;99.90;;;;;;5073052;28;20441;-74
2021/01/12 09:21:50;;;;;;;3.40;3.10;;;8.50;99.90;;;;;;5073018;28;20440;-74
2021/01/12 09:24:18;;;;;;;3.17;2.87;;;8.50;99.90;;;;;;5073574;28;20421;-74
2021/01/12 09:26:45;;;;;;;4.20;3.63;;;8.50;99.90;;;;;;5072942;28;20465;-74
2021/01/12 09:29:11;;;;;;;4.53;3.70;;;8.50;99.90;;;;;;5072701;28;20510;-74
2021/01/12 09:31:45;;;;;;;5.83;4.30;;;8.50;99.90;;;;;;5072996;28;20534;-74
2021/01/12 09:34:19;;;;;;;5.37;4.20;;;8.50;99.90;;;;;;5072811;28;20413;-75
2021/01/12 09:36:45;;;;;;;4.77;4.37;;;8.60;99.90;;;;;;5072769;28;20533;-74
2021/01/12 09:39:12;;;;;;;4.90;3.83;;;8.60;99.90;;;;;;5072865;28;20429;-74
2021/01/12 09:41:39;;;;;;;5.03;4.40;;;8.60;99.90;;;;;;5072808;28;20440;-74
2021/01/12 09:44:06;;;;;;;5.27;4.77;;;8.60;99.90;;;;;;5073119;28;20429;-74
2021/01/12 09:46:33;;;;;;;4.30;4.00;;;8.60;99.90;;;;;;5075993;28;20465;-74
2021/01/12 09:48:59;;;;;;;5.43;4.77;;;8.70;99.90;;;;;;5076275;28;20437;-74
2021/01/12 09:51:27;;;;;;;4.73;4.30;;;8.70;99.90;;;;;;5076535;28;20429;-74
2021/01/12 09:53:53;;;;;;;4.20;3.90;;;8.80;99.90;;;;;;5076453;28;20475;-74
2021/01/12 09:56:21;;;;;;;3.63;3.33;;;8.80;99.90;;;;;;5075989;28;20468;-74
2021/01/12 09:58:49;;;;;;;4.10;3.70;;;8.80;99.90;;;;;;5075799;28;20515;-74
2021/01/12 10:01:16;;;;;;;3.20;2.90;;;8.90;99.90;;;;;;5076389;28;20425;-74
2021/01/12 10:03:42;;;;;;;3.03;1.90;;;8.90;99.90;;;;;;5076101;28;20455;-74
2021/01/12 10:06:16;;;;;;;1.37;1.20;;;8.80;99.90;;;;;;5075629;28;20468;-74
2021/01/12 10:08:43;;;;;;;1.57;1.20;;;8.90;99.90;;;;;;5099584;22;20549;-78
2021/01/12 10:11:09;;;;;;;4.73;2.03;;;8.80;99.90;;;;;;5075819;28;20514;-77
2021/01/12 10:13:36;;;;;;;2.07;1.80;;;8.90;99.80;;;;;;5075521;28;20437;-77
2021/01/12 10:16:02;;;;;;;3.33;2.37;;;8.90;99.60;;;;;;5076030;28;20440;-77
2021/01/12 10:18:28;;;;;;;1.67;1.50;;;8.90;99.10;;;;;;5075269;28;20471;-78
2021/01/12 10:20:54;;;;;;;3.03;1.67;;;9.00;99.10;;;;;;5076101;28;20417;-77
2021/01/12 10:23:21;;;;;;;6.40;4.13;;;9.00;98.90;;;;;;5075551;28;20433;-77
2021/01/12 10:25:48;;;;;;;8.70;5.30;;;9.10;98.60;;;;;;5075598;28;20433;-77
2021/01/12 10:28:15;;;;;;;2.13;2.00;;;9.10;98.80;;;;;;5075292;28;20789;-77
2021/01/12 10:30:41;;;;;;;3.30;2.20;;;9.20;98.90;;;;;;5075170;28;20845;-77
2021/01/12 10:33:08;;;;;;;2.73;2.20;;;9.30;98.70;;;;;;5075486;28;20440;-77
2021/01/12 10:35:34;;;;;;;2.23;1.73;;;9.30;98.70;;;;;;5075469;28;20527;-77
2021/01/12 10:38:00;;;;;;;3.30;1.80;;;9.40;98.40;;;;;;5075340;28;20460;-77
2021/01/12 10:40:26;;;;;;;4.40;2.70;;;9.40;98.10;;;;;;5075348;28;20461;-77
2021/01/12 10:42:53;;;;;;;2.50;2.30;;;9.40;98.30;;;;;;5075222;28;20441;-77
2021/01/12 10:45:20;;;;;;;2.70;1.87;;;9.40;98.20;;;;;;5075630;28;20429;-77
2021/01/12 10:47:46;;;;;;;3.67;1.93;;;9.40;98.20;;;;;;5075173;28;20417;-77
2021/01/12 10:50:40;;;;;;;2.33;1.77;;;9.30;98.20;;;;;;5074938;28;20464;-77
2021/01/12 10:53:53;;;;;;;1.67;1.43;;;9.30;98.50;;;;;;5075090;28;20433;-77
2021/01/12 10:56:19;;;;;;;4.47;1.70;;;9.20;98.30;;;;;;5074488;28;20440;-77
2021/01/12 10:58:46;;;;;;;1.40;1.30;;;9.20;98.30;;;;;;5074986;28;20479;-77
2021/01/12 11:01:14;;;;;;;2.40;1.87;;;9.20;98.40;;;;;;5074921;28;20486;-77
2021/01/12 11:03:41;;;;;;;3.33;2.00;;;9.10;98.40;;;;;;5075016;28;20447;-77
2021/01/12 11:06:07;;;;;;;3.60;2.73;;;9.10;98.60;;;;;;5076031;28;20417;-77
2021/01/12 11:08:33;;;;;;;3.73;2.73;;;9.10;98.60;;;;;;5074789;28;20428;-77
2021/01/12 11:11:01;;;;;;;4.30;2.73;;;8.90;98.70;;;;;;5074808;28;20429;-77
2021/01/12 11:13:28;;;;;;;4.07;3.43;;;8.90;98.90;;;;;;5075133;28;20489;-77
2021/01/12 11:15:57;;;;;;;3.90;3.53;;;8.90;99.00;;;;;;5075033;28;20453;-78
2021/01/12 11:18:23;;;;;;;3.70;2.83;;;8.90;99.00;;;;;;5074719;28;20516;-77
2021/01/12 11:20:52;;;;;;;3.57;3.27;;;8.90;99.10;;;;;;5075328;28;20440;-77
2021/01/12 11:23:18;;;;;;;6.00;3.40;;;8.90;99.00;;;;;;5074890;28;20530;-77
2021/01/12 11:25:48;;;;;;;7.47;3.80;;;8.90;99.10;;;;;;5074919;28;20436;-77
2021/01/12 11:28:15;;;;;;;5.37;3.67;;;8.90;98.80;;;;;;5074208;28;20441;-77
2021/01/12 11:30:41;;;;;;;2.60;2.40;;;8.90;98.90;;;;;;5074232;28;20476;-77
2021/01/12 11:33:10;;;;;;;3.43;2.43;;;8.90;98.20;;;;;;5074248;28;20429;-77
2021/01/12 11:35:37;;;;;;;2.73;2.43;;;8.80;97.70;;;;;;5073900;28;20433;-77
2021/01/12 11:38:03;;;;;;;4.43;3.40;;;8.80;97.70;;;;;;5073819;28;20827;-77
2021/01/12 11:40:29;;;;;;;3.37;2.80;;;8.70;97.60;;;;;;5073938;28;20475;-77
2021/01/12 11:42:56;;;;;;;3.00;2.70;;;8.70;97.80;;;;;;5074125;28;20436;-76
2021/01/12 11:45:22;;;;;;;3.27;2.53;;;8.60;98.00;;;;;;5073956;28;20507;-77
2021/01/12 11:47:49;;;;;;;2.27;2.07;;;8.50;97.40;;;;;;5073751;28;20862;-77
2021/01/12 11:50:16;;;;;;;1.90;1.57;;;8.50;97.10;;;;;;5074203;28;20464;-77
2021/01/12 11:52:43;;;;;;;1.87;1.70;;;8.50;96.80;;;;;;5073925;28;20498;-77
2021/01/12 11:55:09;;;;;;;2.00;1.80;;;8.40;96.60;;;;;;5073592;28;21102;-77
2021/01/12 11:57:35;;;;;;;1.60;1.50;;;8.40;96.50;;;;;;5073766;28;20480;-76
2021/01/12 12:00:05;;;;;;;1.30;1.20;;;8.30;96.50;;;;;;5073797;28;20464;-76
2021/01/12 12:02:31;;;;;;;1.23;1.10;;;8.30;96.80;;;;;;5073833;28;20457;-77
2021/01/12 12:05:00;;;;;;;2.00;1.60;;;8.30;96.90;;;;;;5073764;28;20449;-77
2021/01/12 12:07:27;;;;;;;1.40;1.30;;;8.30;97.10;;;;;;5073022;28;20424;-77
2021/01/12 12:09:53;;;;;;;1.40;1.30;;;8.30;96.80;;;;;;5073631;28;20485;-76
2021/01/12 12:12:20;;;;;;;1.90;1.30;;;8.40;96.80;;;;;;5073836;28;20460;-76
2021/01/12 12:14:47;;;;;;;1.63;1.53;;;8.40;96.50;;;;;;5073649;28;20447;-76
2021/01/12 12:17:13;;;;;;;3.60;1.67;;;8.50;96.70;;;;;;5073417;28;20484;-76
2021/01/12 12:19:40;;;;;;;2.53;2.13;;;8.50;96.60;;;;;;5073504;28;20465;-77
2021/01/12 12:22:06;;;;;;;5.03;2.10;;;8.50;96.90;;;;;;5073214;28;20518;-76
2021/01/12 12:24:33;;;;;;;2.43;2.17;;;8.50;96.90;;;;;;5074298;28;20549;-77
2021/01/12 12:27:01;;;;;;;2.00;1.57;;;8.60;96.50;;;;;;5073503;28;20479;-76
2021/01/12 12:29:28;;;;;;;1.67;1.57;;;8.70;96.40;;;;;;5073569;28;20570;-76
2021/01/12 12:31:56;;;;;;;1.50;1.40;;;8.70;95.50;;;;;;5073966;28;20432;-77
2021/01/12 12:34:22;;;;;;;3.10;2.03;;;8.80;95.20;;;;;;5073345;28;20462;-76
2021/01/12 12:36:49;;;;;;;1.50;1.40;;;8.80;94.70;;;;;;5073291;28;20491;-77
2021/01/12 12:39:15;;;;;;;3.13;1.47;;;8.90;94.80;;;;;;5073074;28;21000;-77
2021/01/12 12:41:42;;;;;;;3.73;1.60;;;8.90;94.40;;;;;;5073275;28;20441;-77
2021/01/12 12:44:09;;;;;;;3.90;1.50;;;8.90;93.90;;;;;;5073334;28;20429;-77
2021/01/12 12:46:35;;;;;;;3.93;2.17;;;9.00;94.00;;;;;;5072957;28;20436;-77
2021/01/12 12:49:01;;;;;;;1.27;1.17;;;9.00;93.40;;;;;;5072969;28;21000;-77
2021/01/12 12:51:27;;;;;;;1.70;1.60;;;9.00;93.50;;;;;;5073264;28;20452;-77
2021/01/12 12:53:55;;;;;;;3.17;1.77;;;9.10;93.50;;;;;;5072939;28;21003;-77
2021/01/12 12:56:22;;;;;;;5.73;2.10;;;9.10;93.10;;;;;;5073213;28;20803;-77